sensor_id;sensor_type;location;lat;lon;timestamp;temperature;humidity
44729;DHT22;30457;53.590;9.922;2023-02-04T00:02:18;8.40;57.20
44729;DHT22;30457;53.590;9.922;2023-02-04T00:06:43;8.30;57.30
44729;DHT22;30457;53.590;9.922;2023-02-04T00:11:09;8.30;57.30
44729;DHT22;30457;53.590;9.922;2023-02-04T00:15:35;8.30;57.40
44729;DHT22;30457;53.590;9.922;2023-02-04T00:20:00;8.30;57.70
44729;DHT22;30457;53.590;9.922;2023-02-04T00:24:26;8.30;57.70
44729;DHT22;30457;53.590;9.922;2023-02-04T00:28:51;8.30;57.70
44729;DHT22;30457;53.590;9.922;2023-02-04T00:33:17;8.30;57.70
44729;DHT22;30457;53.590;9.922;2023-02-04T00:37:42;8.30;57.80
44729;DHT22;30457;53.590;9.922;2023-02-04T00:42:08;8.30;57.50
44729;DHT22;30457;53.590;9.922;2023-02-04T00:46:34;8.30;57.50
44729;DHT22;30457;53.590;9.922;2023-02-04T00:51:00;8.20;57.40
44729;DHT22;30457;53.590;9.922;2023-02-04T00:55:26;8.20;57.50
44729;DHT22;30457;53.590;9.922;2023-02-04T00:59:52;8.10;57.40
44729;DHT22;30457;53.590;9.922;2023-02-04T01:04:17;8.10;57.40
44729;DHT22;30457;53.590;9.922;2023-02-04T01:08:43;8.00;57.30
44729;DHT22;30457;53.590;9.922;2023-02-04T01:13:09;8.00;57.40
44729;DHT22;30457;53.590;9.922;2023-02-04T01:17:34;7.90;57.50
44729;DHT22;30457;53.590;9.922;2023-02-04T01:22:00;7.90;57.50
44729;DHT22;30457;53.590;9.922;2023-02-04T01:26:26;7.80;57.60
44729;DHT22;30457;53.590;9.922;2023-02-04T01:30:52;7.80;57.60
44729;DHT22;30457;53.590;9.922;2023-02-04T01:35:19;7.70;57.70
44729;DHT22;30457;53.590;9.922;2023-02-04T01:39:45;7.70;57.80
44729;DHT22;30457;53.590;9.922;2023-02-04T01:44:12;7.60;57.90
44729;DHT22;30457;53.590;9.922;2023-02-04T01:48:38;7.60;57.90
44729;DHT22;30457;53.590;9.922;2023-02-04T01:53:03;7.60;58.00
44729;DHT22;30457;53.590;9.922;2023-02-04T01:57:31;7.60;58.00
44729;DHT22;30457;53.590;9.922;2023-02-04T02:01:59;7.50;58.00
44729;DHT22;30457;53.590;9.922;2023-02-04T02:06:24;7.50;58.00
44729;DHT22;30457;53.590;9.922;2023-02-04T02:10:51;7.50;58.10
44729;DHT22;30457;53.590;9.922;2023-02-04T02:15:17;7.50;58.10
44729;DHT22;30457;53.590;9.922;2023-02-04T02:19:43;7.50;58.20
44729;DHT22;30457;53.590;9.922;2023-02-04T02:24:27;7.40;58.20
44729;DHT22;30457;53.590;9.922;2023-02-04T02:28:53;7.40;58.30
44729;DHT22;30457;53.590;9.922;2023-02-04T02:33:20;7.40;58.40
44729;DHT22;30457;53.590;9.922;2023-02-04T02:37:45;7.50;58.60
44729;DHT22;30457;53.590;9.922;2023-02-04T02:42:27;7.50;58.70
44729;DHT22;30457;53.590;9.922;2023-02-04T02:46:53;7.50;58.90
44729;DHT22;30457;53.590;9.922;2023-02-04T02:51:19;7.50;58.80
44729;DHT22;30457;53.590;9.922;2023-02-04T02:55:46;7.50;58.90
44729;DHT22;30457;53.590;9.922;2023-02-04T03:00:22;7.50;58.80
44729;DHT22;30457;53.590;9.922;2023-02-04T03:04:55;7.50;58.60
44729;DHT22;30457;53.590;9.922;2023-02-04T03:09:27;7.50;58.30
44729;DHT22;30457;53.590;9.922;2023-02-04T03:13:53;7.40;58.30
44729;DHT22;30457;53.590;9.922;2023-02-04T03:18:19;7.40;58.30
44729;DHT22;30457;53.590;9.922;2023-02-04T03:22:45;7.30;58.30
44729;DHT22;30457;53.590;9.922;2023-02-04T03:27:13;7.20;58.30
44729;DHT22;30457;53.590;9.922;2023-02-04T03:31:39;7.20;58.20
44729;DHT22;30457;53.590;9.922;2023-02-04T03:36:05;7.10;58.20
44729;DHT22;30457;53.590;9.922;2023-02-04T03:40:30;7.00;58.10
44729;DHT22;30457;53.590;9.922;2023-02-04T03:44:56;7.00;58.20
44729;DHT22;30457;53.590;9.922;2023-02-04T03:49:22;6.90;58.40
44729;DHT22;30457;53.590;9.922;2023-02-04T03:53:48;6.90;58.40
44729;DHT22;30457;53.590;9.922;2023-02-04T03:58:14;6.80;58.50
44729;DHT22;30457;53.590;9.922;2023-02-04T04:02:40;6.80;58.70
44729;DHT22;30457;53.590;9.922;2023-02-04T04:07:05;6.70;58.80
44729;DHT22;30457;53.590;9.922;2023-02-04T04:11:31;6.70;59.00
44729;DHT22;30457;53.590;9.922;2023-02-04T04:15:57;6.70;59.20
44729;DHT22;30457;53.590;9.922;2023-02-04T04:20:23;6.70;59.30
44729;DHT22;30457;53.590;9.922;2023-02-04T04:24:52;6.70;59.40
44729;DHT22;30457;53.590;9.922;2023-02-04T04:29:17;6.80;59.60
44729;DHT22;30457;53.590;9.922;2023-02-04T04:33:43;6.80;59.70
44729;DHT22;30457;53.590;9.922;2023-02-04T04:38:09;6.80;59.70
44729;DHT22;30457;53.590;9.922;2023-02-04T04:42:34;6.80;59.60
44729;DHT22;30457;53.590;9.922;2023-02-04T04:47:00;6.90;59.80
44729;DHT22;30457;53.590;9.922;2023-02-04T04:51:26;6.90;59.70
44729;DHT22;30457;53.590;9.922;2023-02-04T04:55:51;6.90;59.60
44729;DHT22;30457;53.590;9.922;2023-02-04T05:00:19;6.90;59.40
44729;DHT22;30457;53.590;9.922;2023-02-04T05:04:45;6.90;59.30
44729;DHT22;30457;53.590;9.922;2023-02-04T05:09:11;6.90;59.40
44729;DHT22;30457;53.590;9.922;2023-02-04T05:13:36;6.80;59.40
44729;DHT22;30457;53.590;9.922;2023-02-04T05:18:02;6.90;59.60
44729;DHT22;30457;53.590;9.922;2023-02-04T05:22:28;6.90;59.50
44729;DHT22;30457;53.590;9.922;2023-02-04T05:26:53;6.90;59.40
44729;DHT22;30457;53.590;9.922;2023-02-04T05:31:19;6.90;59.30
44729;DHT22;30457;53.590;9.922;2023-02-04T05:35:44;6.90;59.40
44729;DHT22;30457;53.590;9.922;2023-02-04T05:40:10;6.90;59.30
44729;DHT22;30457;53.590;9.922;2023-02-04T05:44:36;6.80;59.10
44729;DHT22;30457;53.590;9.922;2023-02-04T05:49:02;6.80;59.00
44729;DHT22;30457;53.590;9.922;2023-02-04T05:53:27;6.80;58.90
44729;DHT22;30457;53.590;9.922;2023-02-04T05:57:53;6.70;58.80
44729;DHT22;30457;53.590;9.922;2023-02-04T06:02:18;6.70;58.70
44729;DHT22;30457;53.590;9.922;2023-02-04T06:06:44;6.60;58.50
44729;DHT22;30457;53.590;9.922;2023-02-04T06:11:10;6.50;58.30
44729;DHT22;30457;53.590;9.922;2023-02-04T06:15:38;6.50;58.30
44729;DHT22;30457;53.590;9.922;2023-02-04T06:20:05;6.40;58.30
44729;DHT22;30457;53.590;9.922;2023-02-04T06:24:31;6.40;58.30
44729;DHT22;30457;53.590;9.922;2023-02-04T06:28:57;6.30;58.40
44729;DHT22;30457;53.590;9.922;2023-02-04T06:33:22;6.20;58.30
44729;DHT22;30457;53.590;9.922;2023-02-04T06:37:48;6.20;58.30
44729;DHT22;30457;53.590;9.922;2023-02-04T06:42:14;6.10;58.40
44729;DHT22;30457;53.590;9.922;2023-02-04T06:46:39;6.00;58.40
44729;DHT22;30457;53.590;9.922;2023-02-04T06:51:05;6.00;58.50
44729;DHT22;30457;53.590;9.922;2023-02-04T06:55:30;5.90;58.50
44729;DHT22;30457;53.590;9.922;2023-02-04T06:59:56;5.90;58.60
44729;DHT22;30457;53.590;9.922;2023-02-04T07:04:21;5.90;58.70
44729;DHT22;30457;53.590;9.922;2023-02-04T07:08:47;5.80;58.80
44729;DHT22;30457;53.590;9.922;2023-02-04T07:13:13;5.80;58.90
44729;DHT22;30457;53.590;9.922;2023-02-04T07:17:39;5.80;59.00
44729;DHT22;30457;53.590;9.922;2023-02-04T07:22:05;5.80;59.10
44729;DHT22;30457;53.590;9.922;2023-02-04T07:26:30;5.80;59.20
44729;DHT22;30457;53.590;9.922;2023-02-04T07:30:56;5.80;59.30
44729;DHT22;30457;53.590;9.922;2023-02-04T07:35:21;5.70;59.30
44729;DHT22;30457;53.590;9.922;2023-02-04T07:39:48;5.80;59.40
44729;DHT22;30457;53.590;9.922;2023-02-04T07:44:14;5.80;59.50
44729;DHT22;30457;53.590;9.922;2023-02-04T07:48:39;5.80;59.70
44729;DHT22;30457;53.590;9.922;2023-02-04T07:53:05;5.80;59.80
44729;DHT22;30457;53.590;9.922;2023-02-04T07:57:30;5.80;60.00
44729;DHT22;30457;53.590;9.922;2023-02-04T08:01:56;5.80;60.20
44729;DHT22;30457;53.590;9.922;2023-02-04T08:06:22;5.90;60.30
44729;DHT22;30457;53.590;9.922;2023-02-04T08:10:47;5.90;60.40
44729;DHT22;30457;53.590;9.922;2023-02-04T08:15:13;6.00;60.60
44729;DHT22;30457;53.590;9.922;2023-02-04T08:19:38;6.10;60.70
44729;DHT22;30457;53.590;9.922;2023-02-04T08:24:04;6.20;60.80
44729;DHT22;30457;53.590;9.922;2023-02-04T08:28:30;6.20;60.70
44729;DHT22;30457;53.590;9.922;2023-02-04T08:32:55;6.30;60.60
44729;DHT22;30457;53.590;9.922;2023-02-04T08:37:21;6.40;60.80
44729;DHT22;30457;53.590;9.922;2023-02-04T08:41:47;6.40;60.60
44729;DHT22;30457;53.590;9.922;2023-02-04T08:46:13;6.50;60.50
44729;DHT22;30457;53.590;9.922;2023-02-04T08:50:39;6.60;60.50
44729;DHT22;30457;53.590;9.922;2023-02-04T08:55:05;6.70;60.60
44729;DHT22;30457;53.590;9.922;2023-02-04T08:59:30;6.70;60.50
44729;DHT22;30457;53.590;9.922;2023-02-04T09:03:56;6.80;60.60
44729;DHT22;30457;53.590;9.922;2023-02-04T09:08:21;7.00;60.70
44729;DHT22;30457;53.590;9.922;2023-02-04T09:12:47;7.10;60.50
44729;DHT22;30457;53.590;9.922;2023-02-04T09:17:13;7.20;60.20
44729;DHT22;30457;53.590;9.922;2023-02-04T09:21:38;7.40;60.10
44729;DHT22;30457;53.590;9.922;2023-02-04T09:26:04;7.50;59.80
44729;DHT22;30457;53.590;9.922;2023-02-04T09:30:31;7.60;59.30
44729;DHT22;30457;53.590;9.922;2023-02-04T09:34:56;7.70;59.10
44729;DHT22;30457;53.590;9.922;2023-02-04T09:39:22;7.70;58.90
44729;DHT22;30457;53.590;9.922;2023-02-04T09:43:48;7.80;58.80
44729;DHT22;30457;53.590;9.922;2023-02-04T09:48:14;7.90;58.80
44729;DHT22;30457;53.590;9.922;2023-02-04T09:52:40;8.00;58.80
44729;DHT22;30457;53.590;9.922;2023-02-04T09:57:14;8.10;58.60
44729;DHT22;30457;53.590;9.922;2023-02-04T10:01:41;8.20;58.10
44729;DHT22;30457;53.590;9.922;2023-02-04T10:06:07;8.30;58.20
44729;DHT22;30457;53.590;9.922;2023-02-04T10:10:33;8.50;58.00
44729;DHT22;30457;53.590;9.922;2023-02-04T10:14:58;8.60;57.90
44729;DHT22;30457;53.590;9.922;2023-02-04T10:19:26;8.60;57.30
44729;DHT22;30457;53.590;9.922;2023-02-04T10:23:55;8.70;57.30
44729;DHT22;30457;53.590;9.922;2023-02-04T10:28:35;8.80;57.50
44729;DHT22;30457;53.590;9.922;2023-02-04T10:33:15;8.90;57.10
44729;DHT22;30457;53.590;9.922;2023-02-04T10:37:46;9.00;57.40
44729;DHT22;30457;53.590;9.922;2023-02-04T10:42:22;9.10;57.50
44729;DHT22;30457;53.590;9.922;2023-02-04T10:46:48;9.30;56.50
44729;DHT22;30457;53.590;9.922;2023-02-04T10:51:13;9.40;56.80
44729;DHT22;30457;53.590;9.922;2023-02-04T10:55:39;9.50;56.50
44729;DHT22;30457;53.590;9.922;2023-02-04T11:00:14;9.50;56.20
44729;DHT22;30457;53.590;9.922;2023-02-04T11:04:40;9.60;55.60
44729;DHT22;30457;53.590;9.922;2023-02-04T11:09:06;9.70;55.80
44729;DHT22;30457;53.590;9.922;2023-02-04T11:13:43;9.80;55.40
44729;DHT22;30457;53.590;9.922;2023-02-04T11:18:30;9.80;54.70
44729;DHT22;30457;53.590;9.922;2023-02-04T11:22:55;9.80;54.60
44729;DHT22;30457;53.590;9.922;2023-02-04T11:27:35;9.90;55.60
44729;DHT22;30457;53.590;9.922;2023-02-04T11:32:11;10.00;55.40
44729;DHT22;30457;53.590;9.922;2023-02-04T11:41:27;10.20;54.90
44729;DHT22;30457;53.590;9.922;2023-02-04T11:46:12;10.20;54.80
44729;DHT22;30457;53.590;9.922;2023-02-04T11:50:39;10.30;54.70
44729;DHT22;30457;53.590;9.922;2023-02-04T11:55:08;10.30;54.70
44729;DHT22;30457;53.590;9.922;2023-02-04T11:59:35;10.40;54.10
44729;DHT22;30457;53.590;9.922;2023-02-04T12:04:03;10.50;53.60
44729;DHT22;30457;53.590;9.922;2023-02-04T12:08:35;10.60;53.20
44729;DHT22;30457;53.590;9.922;2023-02-04T12:13:12;10.60;52.10
44729;DHT22;30457;53.590;9.922;2023-02-04T12:17:37;10.60;51.80
44729;DHT22;30457;53.590;9.922;2023-02-04T12:22:03;10.60;52.50
44729;DHT22;30457;53.590;9.922;2023-02-04T12:26:29;10.60;52.60
44729;DHT22;30457;53.590;9.922;2023-02-04T12:30:55;10.60;52.40
44729;DHT22;30457;53.590;9.922;2023-02-04T12:35:20;10.60;52.50
44729;DHT22;30457;53.590;9.922;2023-02-04T12:39:46;10.70;52.10
44729;DHT22;30457;53.590;9.922;2023-02-04T12:44:11;10.70;52.20
44729;DHT22;30457;53.590;9.922;2023-02-04T12:48:37;10.70;51.80
44729;DHT22;30457;53.590;9.922;2023-02-04T12:53:05;10.70;52.10
44729;DHT22;30457;53.590;9.922;2023-02-04T12:57:32;10.70;51.90
44729;DHT22;30457;53.590;9.922;2023-02-04T13:01:58;10.70;51.40
44729;DHT22;30457;53.590;9.922;2023-02-04T13:06:23;10.60;51.50
44729;DHT22;30457;53.590;9.922;2023-02-04T13:10:49;10.60;51.30
44729;DHT22;30457;53.590;9.922;2023-02-04T13:15:16;10.50;51.10
44729;DHT22;30457;53.590;9.922;2023-02-04T13:19:42;10.50;51.30
44729;DHT22;30457;53.590;9.922;2023-02-04T13:24:07;10.50;51.70
44729;DHT22;30457;53.590;9.922;2023-02-04T13:28:34;10.50;51.40
44729;DHT22;30457;53.590;9.922;2023-02-04T13:33:00;10.60;51.60
44729;DHT22;30457;53.590;9.922;2023-02-04T13:37:25;10.60;51.50
44729;DHT22;30457;53.590;9.922;2023-02-04T13:41:51;10.70;51.20
44729;DHT22;30457;53.590;9.922;2023-02-04T13:46:16;10.70;50.80
44729;DHT22;30457;53.590;9.922;2023-02-04T13:50:42;10.70;50.60
44729;DHT22;30457;53.590;9.922;2023-02-04T13:55:08;10.70;50.30
44729;DHT22;30457;53.590;9.922;2023-02-04T13:59:33;10.70;50.50
44729;DHT22;30457;53.590;9.922;2023-02-04T14:03:59;10.70;50.30
44729;DHT22;30457;53.590;9.922;2023-02-04T14:08:24;10.70;50.50
44729;DHT22;30457;53.590;9.922;2023-02-04T14:12:51;10.60;50.50
44729;DHT22;30457;53.590;9.922;2023-02-04T14:17:16;10.60;50.50
44729;DHT22;30457;53.590;9.922;2023-02-04T14:21:42;10.50;50.60
44729;DHT22;30457;53.590;9.922;2023-02-04T14:26:07;10.50;50.80
44729;DHT22;30457;53.590;9.922;2023-02-04T14:30:34;10.40;50.80
44729;DHT22;30457;53.590;9.922;2023-02-04T14:35:00;10.40;51.00
44729;DHT22;30457;53.590;9.922;2023-02-04T14:39:25;10.30;51.10
44729;DHT22;30457;53.590;9.922;2023-02-04T14:43:51;10.20;51.40
44729;DHT22;30457;53.590;9.922;2023-02-04T14:48:18;10.20;51.70
44729;DHT22;30457;53.590;9.922;2023-02-04T14:52:44;10.10;51.00
44729;DHT22;30457;53.590;9.922;2023-02-04T14:57:09;10.10;51.20
44729;DHT22;30457;53.590;9.922;2023-02-04T15:01:36;10.00;51.10
44729;DHT22;30457;53.590;9.922;2023-02-04T15:06:02;10.00;51.10
44729;DHT22;30457;53.590;9.922;2023-02-04T15:10:27;10.00;51.40
44729;DHT22;30457;53.590;9.922;2023-02-04T15:14:54;10.00;51.40
44729;DHT22;30457;53.590;9.922;2023-02-04T15:19:19;9.90;51.40
44729;DHT22;30457;53.590;9.922;2023-02-04T15:23:45;9.90;51.40
44729;DHT22;30457;53.590;9.922;2023-02-04T15:28:12;9.90;51.20
44729;DHT22;30457;53.590;9.922;2023-02-04T15:32:37;9.80;50.90
44729;DHT22;30457;53.590;9.922;2023-02-04T15:37:04;9.70;51.00
44729;DHT22;30457;53.590;9.922;2023-02-04T15:41:30;9.60;51.10
44729;DHT22;30457;53.590;9.922;2023-02-04T15:45:55;9.50;51.30
44729;DHT22;30457;53.590;9.922;2023-02-04T15:50:21;9.40;51.40
44729;DHT22;30457;53.590;9.922;2023-02-04T15:54:47;9.40;51.70
44729;DHT22;30457;53.590;9.922;2023-02-04T15:59:12;9.40;51.70
44729;DHT22;30457;53.590;9.922;2023-02-04T16:03:40;9.30;51.80
44729;DHT22;30457;53.590;9.922;2023-02-04T16:08:08;9.30;52.60
44729;DHT22;30457;53.590;9.922;2023-02-04T16:12:34;9.30;51.90
44729;DHT22;30457;53.590;9.922;2023-02-04T16:17:00;9.30;51.80
44729;DHT22;30457;53.590;9.922;2023-02-04T16:21:29;9.20;51.50
44729;DHT22;30457;53.590;9.922;2023-02-04T16:25:55;9.20;51.50
44729;DHT22;30457;53.590;9.922;2023-02-04T16:30:21;9.10;51.70
44729;DHT22;30457;53.590;9.922;2023-02-04T16:34:46;9.10;51.70
44729;DHT22;30457;53.590;9.922;2023-02-04T16:39:12;9.00;51.80
44729;DHT22;30457;53.590;9.922;2023-02-04T16:43:37;9.00;51.80
44729;DHT22;30457;53.590;9.922;2023-02-04T16:48:03;9.00;51.90
44729;DHT22;30457;53.590;9.922;2023-02-04T16:52:30;8.90;51.90
44729;DHT22;30457;53.590;9.922;2023-02-04T16:56:56;8.90;51.70
44729;DHT22;30457;53.590;9.922;2023-02-04T17:01:24;8.80;51.90
44729;DHT22;30457;53.590;9.922;2023-02-04T17:05:50;8.80;52.00
44729;DHT22;30457;53.590;9.922;2023-02-04T17:10:15;8.80;52.20
44729;DHT22;30457;53.590;9.922;2023-02-04T17:15:01;8.70;52.60
44729;DHT22;30457;53.590;9.922;2023-02-04T17:19:27;8.70;52.20
44729;DHT22;30457;53.590;9.922;2023-02-04T17:23:53;8.70;52.20
44729;DHT22;30457;53.590;9.922;2023-02-04T17:28:20;8.60;52.10
44729;DHT22;30457;53.590;9.922;2023-02-04T17:32:46;8.60;52.10
44729;DHT22;30457;53.590;9.922;2023-02-04T17:37:11;8.60;52.20
44729;DHT22;30457;53.590;9.922;2023-02-04T17:41:37;8.50;52.20
44729;DHT22;30457;53.590;9.922;2023-02-04T17:46:02;8.50;52.30
44729;DHT22;30457;53.590;9.922;2023-02-04T17:50:28;8.40;52.10
44729;DHT22;30457;53.590;9.922;2023-02-04T17:54:54;8.30;52.10
44729;DHT22;30457;53.590;9.922;2023-02-04T17:59:19;8.30;52.00
44729;DHT22;30457;53.590;9.922;2023-02-04T18:03:45;8.20;52.00
44729;DHT22;30457;53.590;9.922;2023-02-04T18:12:40;8.00;52.00
44729;DHT22;30457;53.590;9.922;2023-02-04T18:17:10;8.00;52.20
44729;DHT22;30457;53.590;9.922;2023-02-04T18:21:37;7.90;52.40
44729;DHT22;30457;53.590;9.922;2023-02-04T18:26:15;7.80;52.60
44729;DHT22;30457;53.590;9.922;2023-02-04T18:30:42;7.80;52.70
44729;DHT22;30457;53.590;9.922;2023-02-04T18:35:45;7.70;52.80
44729;DHT22;30457;53.590;9.922;2023-02-04T18:40:27;7.70;52.60
44729;DHT22;30457;53.590;9.922;2023-02-04T18:44:54;7.70;52.80
44729;DHT22;30457;53.590;9.922;2023-02-04T18:49:25;7.70;53.00
44729;DHT22;30457;53.590;9.922;2023-02-04T18:53:53;7.60;52.80
44729;DHT22;30457;53.590;9.922;2023-02-04T18:58:33;7.60;53.00
44729;DHT22;30457;53.590;9.922;2023-02-04T19:03:16;7.50;53.10
44729;DHT22;30457;53.590;9.922;2023-02-04T19:07:44;7.50;53.20
44729;DHT22;30457;53.590;9.922;2023-02-04T19:12:16;7.50;53.30
44729;DHT22;30457;53.590;9.922;2023-02-04T19:16:47;7.50;53.30
44729;DHT22;30457;53.590;9.922;2023-02-04T19:25:47;7.50;53.50
44729;DHT22;30457;53.590;9.922;2023-02-04T19:30:45;7.50;53.50
44729;DHT22;30457;53.590;9.922;2023-02-04T19:35:23;7.40;53.40
44729;DHT22;30457;53.590;9.922;2023-02-04T19:39:49;7.40;53.40
44729;DHT22;30457;53.590;9.922;2023-02-04T19:44:36;7.40;53.60
44729;DHT22;30457;53.590;9.922;2023-02-04T19:49:27;7.30;53.20
44729;DHT22;30457;53.590;9.922;2023-02-04T19:54:00;7.30;53.30
44729;DHT22;30457;53.590;9.922;2023-02-04T19:58:28;7.30;53.40
44729;DHT22;30457;53.590;9.922;2023-02-04T20:03:09;7.20;53.40
44729;DHT22;30457;53.590;9.922;2023-02-04T20:07:37;7.20;53.40
44729;DHT22;30457;53.590;9.922;2023-02-04T20:12:11;7.10;53.40
44729;DHT22;30457;53.590;9.922;2023-02-04T20:21:10;7.00;53.40
44729;DHT22;30457;53.590;9.922;2023-02-04T20:25:39;7.00;53.30
44729;DHT22;30457;53.590;9.922;2023-02-04T20:34:34;6.80;53.40
44729;DHT22;30457;53.590;9.922;2023-02-04T20:43:41;6.70;53.40
44729;DHT22;30457;53.590;9.922;2023-02-04T20:57:17;6.50;53.70
44729;DHT22;30457;53.590;9.922;2023-02-04T21:01:48;6.50;53.70
44729;DHT22;30457;53.590;9.922;2023-02-04T21:06:26;6.40;53.80
44729;DHT22;30457;53.590;9.922;2023-02-04T21:10:52;6.30;53.80
44729;DHT22;30457;53.590;9.922;2023-02-04T21:15:18;6.30;54.00
44729;DHT22;30457;53.590;9.922;2023-02-04T21:19:44;6.20;54.10
44729;DHT22;30457;53.590;9.922;2023-02-04T21:24:09;6.20;54.20
44729;DHT22;30457;53.590;9.922;2023-02-04T21:28:35;6.10;54.30
44729;DHT22;30457;53.590;9.922;2023-02-04T21:33:00;6.10;54.40
44729;DHT22;30457;53.590;9.922;2023-02-04T21:37:26;6.00;54.40
44729;DHT22;30457;53.590;9.922;2023-02-04T21:41:52;6.00;54.50
44729;DHT22;30457;53.590;9.922;2023-02-04T21:46:34;5.90;54.50
44729;DHT22;30457;53.590;9.922;2023-02-04T21:50:59;5.90;54.60
44729;DHT22;30457;53.590;9.922;2023-02-04T21:55:25;5.80;54.60
44729;DHT22;30457;53.590;9.922;2023-02-04T21:59:51;5.70;54.70
44729;DHT22;30457;53.590;9.922;2023-02-04T22:04:18;5.70;54.80
44729;DHT22;30457;53.590;9.922;2023-02-04T22:08:44;5.70;55.00
44729;DHT22;30457;53.590;9.922;2023-02-04T22:13:09;5.60;55.10
44729;DHT22;30457;53.590;9.922;2023-02-04T22:17:35;5.60;55.20
44729;DHT22;30457;53.590;9.922;2023-02-04T22:22:01;5.60;55.20
44729;DHT22;30457;53.590;9.922;2023-02-04T22:26:26;5.50;55.20
44729;DHT22;30457;53.590;9.922;2023-02-04T22:30:52;5.50;55.30
44729;DHT22;30457;53.590;9.922;2023-02-04T22:35:17;5.50;55.50
44729;DHT22;30457;53.590;9.922;2023-02-04T22:39:43;5.40;55.50
44729;DHT22;30457;53.590;9.922;2023-02-04T22:44:09;5.40;55.50
44729;DHT22;30457;53.590;9.922;2023-02-04T22:48:34;5.40;55.60
44729;DHT22;30457;53.590;9.922;2023-02-04T22:53:00;5.30;55.50
44729;DHT22;30457;53.590;9.922;2023-02-04T22:57:25;5.30;55.50
44729;DHT22;30457;53.590;9.922;2023-02-04T23:01:51;5.20;55.50
44729;DHT22;30457;53.590;9.922;2023-02-04T23:06:16;5.20;55.50
44729;DHT22;30457;53.590;9.922;2023-02-04T23:10:43;5.20;55.50
44729;DHT22;30457;53.590;9.922;2023-02-04T23:15:10;5.20;55.60
44729;DHT22;30457;53.590;9.922;2023-02-04T23:19:36;5.10;55.60
44729;DHT22;30457;53.590;9.922;2023-02-04T23:24:02;5.00;55.70
44729;DHT22;30457;53.590;9.922;2023-02-04T23:28:29;5.00;55.80
44729;DHT22;30457;53.590;9.922;2023-02-04T23:32:55;5.00;55.90
44729;DHT22;30457;53.590;9.922;2023-02-04T23:37:20;5.00;55.90
44729;DHT22;30457;53.590;9.922;2023-02-04T23:41:47;5.00;55.90
44729;DHT22;30457;53.590;9.922;2023-02-04T23:46:12;5.00;56.00
44729;DHT22;30457;53.590;9.922;2023-02-04T23:50:38;4.90;56.00
44729;DHT22;30457;53.590;9.922;2023-02-04T23:55:04;4.90;56.00
44729;DHT22;30457;53.590;9.922;2023-02-04T23:59:30;4.90;56.10
